createdAt,value
2018-11-05T00:00:38.413Z,5.40
2018-11-05T00:02:09.982Z,3.60
2018-11-05T00:03:41.854Z,4.40
2018-11-05T00:05:13.122Z,4.20
2018-11-05T00:06:44.702Z,3.70
2018-11-05T00:08:16.263Z,2.90
2018-11-05T00:09:47.832Z,3.10
2018-11-05T00:11:19.403Z,3.10
2018-11-05T00:12:50.979Z,3.50
2018-11-05T00:14:22.543Z,4.30
2018-11-05T00:15:54.114Z,4.80
2018-11-05T00:17:25.683Z,4.70
2018-11-05T00:18:57.255Z,4.40
2018-11-05T00:20:28.823Z,3.80
2018-11-05T00:22:00.494Z,4.10
2018-11-05T00:23:31.965Z,4.50
2018-11-05T00:25:03.534Z,5.00
2018-11-05T00:26:35.104Z,5.60
2018-11-05T00:28:06.675Z,5.70
2018-11-05T00:29:38.245Z,6.20
2018-11-05T00:31:09.816Z,7.30
2018-11-05T00:32:41.385Z,6.40
2018-11-05T00:34:12.958Z,7.40
2018-11-05T00:35:44.829Z,7.50
2018-11-05T00:37:16.096Z,7.40
2018-11-05T00:38:47.666Z,7.40
2018-11-05T00:40:19.339Z,7.80
2018-11-05T00:41:50.807Z,8.80
2018-11-05T00:43:22.378Z,8.50
2018-11-05T00:44:53.956Z,8.90
2018-11-05T00:46:25.518Z,7.20
2018-11-05T00:47:57.088Z,8.20
2018-11-05T00:49:28.661Z,7.90
2018-11-05T00:51:00.229Z,8.10
2018-11-05T00:52:31.801Z,8.10
2018-11-05T00:54:03.369Z,7.90
2018-11-05T00:55:34.992Z,8.50
2018-11-05T00:57:06.510Z,6.90
2018-11-05T00:58:38.180Z,8.40
2018-11-05T01:00:09.649Z,6.40
2018-11-05T01:01:42.024Z,6.40
2018-11-05T01:03:12.791Z,6.10
2018-11-05T01:04:44.467Z,5.90
2018-11-05T01:06:15.931Z,6.40
2018-11-05T01:07:47.501Z,6.90
2018-11-05T01:09:19.072Z,7.40
2018-11-05T01:10:50.642Z,7.00
2018-11-05T01:12:22.213Z,7.10
2018-11-05T01:13:53.783Z,7.30
2018-11-05T01:15:25.357Z,7.50
2018-11-05T01:16:57.024Z,6.60
2018-11-05T01:18:28.493Z,6.50
2018-11-05T01:20:00.064Z,6.30
2018-11-05T01:21:31.634Z,6.70
2018-11-05T01:23:03.204Z,7.80
2018-11-05T01:24:34.773Z,8.40
2018-11-05T01:26:06.343Z,7.70
2018-11-05T01:27:37.914Z,8.00
2018-11-05T01:29:09.484Z,8.70
2018-11-05T01:30:41.055Z,7.20
2018-11-05T01:32:12.626Z,8.00
2018-11-05T01:33:44.194Z,8.30
2018-11-05T01:35:15.865Z,6.90
2018-11-05T01:36:47.339Z,7.90
2018-11-05T01:38:18.904Z,7.50
2018-11-05T01:39:50.475Z,6.90
2018-11-05T01:41:22.045Z,6.90
2018-11-05T01:44:25.187Z,6.70
2018-11-05T01:45:56.756Z,7.30
2018-11-05T01:47:28.326Z,7.00
2018-11-05T01:48:59.896Z,7.60
2018-11-05T01:50:31.470Z,6.90
2018-11-05T01:52:03.036Z,7.40
2018-11-05T01:53:34.707Z,7.00
2018-11-05T01:55:06.177Z,7.40
2018-11-05T01:56:37.747Z,7.10
2018-11-05T01:58:09.318Z,7.30
2018-11-05T01:59:40.958Z,7.50
2018-11-05T02:01:12.529Z,7.40
2018-11-05T02:03:32.979Z,7.70
2018-11-05T02:04:15.603Z,7.70
2018-11-05T02:05:47.171Z,7.60
2018-11-05T02:07:18.742Z,6.50
2018-11-05T02:08:50.314Z,5.40
2018-11-05T02:10:21.984Z,5.70
2018-11-05T02:11:53.752Z,4.50
2018-11-05T02:13:25.087Z,5.00
2018-11-05T02:16:28.163Z,4.20
2018-11-05T02:17:59.734Z,5.90
2018-11-05T02:19:31.303Z,5.30
2018-11-05T02:21:02.880Z,5.50
2018-11-05T02:22:34.444Z,5.40
2018-11-05T02:24:06.015Z,5.80
2018-11-05T02:25:37.587Z,4.50
2018-11-05T02:27:09.190Z,5.40
2018-11-05T02:28:40.725Z,6.40
2018-11-05T02:30:12.405Z,6.80
2018-11-05T02:31:44.396Z,7.30
2018-11-05T02:33:15.435Z,7.50
2018-11-05T02:34:47.008Z,7.80
2018-11-05T02:36:18.677Z,7.90
2018-11-05T02:37:50.151Z,8.50
2018-11-05T02:39:21.717Z,8.90
2018-11-05T02:42:24.857Z,9.10
2018-11-05T02:43:56.428Z,9.30
2018-11-05T02:45:27.999Z,10.30
2018-11-05T02:46:59.577Z,9.40
2018-11-05T02:48:31.240Z,10.30
2018-11-05T02:50:02.709Z,10.50
2018-11-05T02:51:34.280Z,10.20
2018-11-05T02:53:05.875Z,10.50
2018-11-05T02:54:37.420Z,11.20
2018-11-05T02:56:08.992Z,11.30
2018-11-05T02:59:12.131Z,11.00
2018-11-05T03:00:43.701Z,9.50
2018-11-05T03:02:15.295Z,11.30
2018-11-05T03:03:46.843Z,10.20
2018-11-05T03:06:50.087Z,10.00
2018-11-05T03:08:21.554Z,10.90
2018-11-05T03:09:53.124Z,10.70
2018-11-05T03:11:24.693Z,9.80
2018-11-05T03:12:56.264Z,10.40
2018-11-05T03:14:27.834Z,9.50
2018-11-05T03:15:59.404Z,9.70
2018-11-05T03:17:30.976Z,10.50
2018-11-05T03:19:02.545Z,11.20
2018-11-05T03:20:34.115Z,9.70
2018-11-05T03:22:05.691Z,10.00
2018-11-05T03:23:37.264Z,11.00
2018-11-05T03:25:08.927Z,10.60
2018-11-05T03:26:40.411Z,10.90
2018-11-05T03:28:11.968Z,10.70
2018-11-05T03:29:43.536Z,10.70
2018-11-05T03:31:15.116Z,10.10
2018-11-05T03:32:46.691Z,10.30
2018-11-05T03:34:18.247Z,10.30
2018-11-05T03:35:49.894Z,9.40
2018-11-05T03:37:21.388Z,9.80
2018-11-05T03:38:52.963Z,9.70
2018-11-05T03:40:24.528Z,9.70
2018-11-05T03:41:56.098Z,10.40
2018-11-05T03:43:27.769Z,8.80
2018-11-05T03:44:59.239Z,8.70
2018-11-05T03:46:30.810Z,7.90
2018-11-05T03:48:02.378Z,8.00
2018-11-05T03:49:33.950Z,7.70
2018-11-05T03:51:05.590Z,7.20
2018-11-05T03:52:37.090Z,7.40
2018-11-05T03:54:08.659Z,7.00
2018-11-05T03:55:40.473Z,7.00
2018-11-05T03:57:11.800Z,7.40
2018-11-05T03:58:43.441Z,6.90
2018-11-05T04:00:15.013Z,6.20
2018-11-05T04:01:46.734Z,6.40
2018-11-05T04:03:18.249Z,6.10
2018-11-05T04:04:49.721Z,6.20
2018-11-05T04:06:21.495Z,6.50
2018-11-05T04:07:52.863Z,6.60
2018-11-05T04:09:24.432Z,5.90
2018-11-05T04:10:56.004Z,5.70
2018-11-05T04:12:27.572Z,5.80
2018-11-05T04:13:59.143Z,6.00
2018-11-05T04:15:30.859Z,5.80
2018-11-05T04:17:02.284Z,6.00
2018-11-05T04:18:33.853Z,5.90
2018-11-05T04:20:05.574Z,5.90
2018-11-05T04:21:36.995Z,5.20
2018-11-05T04:23:08.564Z,6.10
2018-11-05T04:24:46.402Z,5.50
2018-11-05T04:26:11.706Z,5.60
2018-11-05T04:27:43.570Z,5.40
2018-11-05T04:29:14.845Z,5.10
2018-11-05T04:30:46.415Z,4.20
2018-11-05T04:32:17.986Z,5.00
2018-11-05T04:33:49.556Z,4.90
2018-11-05T11:16:11.528Z,5.00
2018-11-05T11:17:42.325Z,5.20
2018-11-05T11:19:14.241Z,5.20
2018-11-05T11:20:45.925Z,5.40
2018-11-05T11:22:17.091Z,5.50
2018-11-05T11:23:48.926Z,5.80
2018-11-05T11:25:20.469Z,5.40
2018-11-05T11:26:51.694Z,5.60
2018-11-05T11:28:24.450Z,6.10
2018-11-05T11:29:56.193Z,6.50
2018-11-05T11:31:27.090Z,6.70
2018-11-05T11:32:58.433Z,5.90
2018-11-05T11:34:29.664Z,6.90
2018-11-05T11:36:01.130Z,7.30
2018-11-05T11:37:32.758Z,6.80
2018-11-05T11:39:04.332Z,6.50
2018-11-05T11:40:36.384Z,7.30
2018-11-05T11:45:10.585Z,6.50
2018-11-05T11:46:42.467Z,7.50
2018-11-05T11:48:13.862Z,7.80
2018-11-05T11:49:45.310Z,7.20
2018-11-05T11:51:16.889Z,6.10
2018-11-05T11:52:48.586Z,5.80
2018-11-05T11:54:20.072Z,5.70
2018-11-05T11:55:51.686Z,6.20
2018-11-05T11:57:23.396Z,7.00
2018-11-05T11:58:54.767Z,6.70
2018-11-05T12:00:26.427Z,7.80
2018-11-05T12:01:59.172Z,8.90
2018-11-05T12:03:29.513Z,7.80
2018-11-05T12:05:01.502Z,8.00
2018-11-05T12:06:32.937Z,6.80
2018-11-05T12:08:04.197Z,7.40
2018-11-05T12:09:36.713Z,8.50
2018-11-05T12:11:07.560Z,7.10
2018-11-05T12:12:38.920Z,8.00
2018-11-05T12:15:42.328Z,7.60
2018-11-05T12:17:14.614Z,7.50
2018-11-05T12:18:45.264Z,7.30
2018-11-05T12:20:16.825Z,8.00
2018-11-05T12:21:48.514Z,5.60
2018-11-05T12:23:20.062Z,6.50
2018-11-05T12:24:51.751Z,6.30
2018-11-05T12:26:23.644Z,6.20
2018-11-05T12:27:54.727Z,6.40
2018-11-05T12:29:26.245Z,6.30
2018-11-05T12:30:57.821Z,4.50
2018-11-05T12:34:00.974Z,4.60
2018-11-05T12:35:32.546Z,4.70
2018-11-05T12:38:35.994Z,4.40
2018-11-05T12:41:38.950Z,4.20
2018-11-05T12:43:10.845Z,5.10
2018-11-05T12:44:42.320Z,4.60
2018-11-05T12:46:13.904Z,4.40
2018-11-05T12:47:45.150Z,4.80
2018-11-05T12:49:17.035Z,4.90
2018-11-05T12:50:48.437Z,4.80
2018-11-05T12:52:20.452Z,5.20
2018-11-05T12:55:23.389Z,4.70
2018-11-05T12:58:26.229Z,4.70
2018-11-05T12:59:58.547Z,5.00
2018-11-05T13:01:29.531Z,4.80
2018-11-05T13:03:00.946Z,4.70
2018-11-05T13:04:33.723Z,5.10
2018-11-05T13:06:04.107Z,4.90
2018-11-05T13:07:36.277Z,4.60
2018-11-05T13:09:07.374Z,4.70
2018-11-05T13:10:39.136Z,5.30
2018-11-05T13:12:10.669Z,4.80
2018-11-05T13:13:42.169Z,4.20
2018-11-05T13:16:45.214Z,4.60
2018-11-05T13:18:17.328Z,4.30
2018-11-05T13:19:49.049Z,4.20
2018-11-05T13:21:19.954Z,3.80
2018-11-05T13:22:51.659Z,3.30
2018-11-05T13:24:23.695Z,4.00
2018-11-05T13:25:54.909Z,3.80
2018-11-05T13:27:27.758Z,3.10
2018-11-05T13:28:57.834Z,3.00
2018-11-05T13:30:30.303Z,3.60
2018-11-05T13:32:02.563Z,3.50
2018-11-05T13:33:32.817Z,3.10
2018-11-05T13:35:04.470Z,3.60
2018-11-05T13:36:36.045Z,3.20
2018-11-05T13:38:08.074Z,3.80
2018-11-05T13:39:39.170Z,3.50
2018-11-05T13:42:42.003Z,3.40
2018-11-05T13:44:13.898Z,3.30
2018-11-05T13:45:45.534Z,3.80
2018-11-05T13:47:17.833Z,3.70
2018-11-05T13:48:49.423Z,4.00
2018-11-05T13:50:20.959Z,4.50
2018-11-05T13:51:52.672Z,4.40
2018-11-05T13:53:23.437Z,4.70
2018-11-05T13:56:27.085Z,4.50
2018-11-05T13:57:57.957Z,4.50
2018-11-05T13:59:29.694Z,4.90
2018-11-05T14:02:32.891Z,4.20
2018-11-05T14:04:04.106Z,4.10
2018-11-05T14:05:36.286Z,4.30
2018-11-05T14:07:07.289Z,3.40
2018-11-05T14:08:38.964Z,3.40
2018-11-05T14:10:10.442Z,3.90
2018-11-05T14:11:42.004Z,4.20
2018-11-05T14:13:13.674Z,3.90
2018-11-05T14:14:45.427Z,3.60
2018-11-05T14:16:16.875Z,4.10
2018-11-05T14:17:48.798Z,4.70
2018-11-05T14:19:20.181Z,4.70
2018-11-05T14:20:52.096Z,4.00
2018-11-05T14:22:23.053Z,3.90
2018-11-05T14:23:54.709Z,3.60
2018-11-05T14:25:26.392Z,3.70
2018-11-05T14:30:02.076Z,4.50
2018-11-05T14:31:32.720Z,4.30
2018-11-05T14:33:04.127Z,4.20
2018-11-05T14:34:35.732Z,4.30
2018-11-05T14:36:07.986Z,4.10
2018-11-05T14:37:38.870Z,4.60
2018-11-05T14:39:10.517Z,5.30
2018-11-05T14:40:42.273Z,5.80
2018-11-05T14:42:13.581Z,6.10
2018-11-05T14:43:45.525Z,5.60
2018-11-05T14:45:16.780Z,6.80
2018-11-05T14:46:48.615Z,6.30
2018-11-05T14:48:20.043Z,6.60
2018-11-05T14:49:51.568Z,5.30
2018-11-05T14:51:23.278Z,5.70
2018-11-05T14:54:26.467Z,4.60
2018-11-05T14:55:57.998Z,5.80
2018-11-05T14:57:29.812Z,5.50
2018-11-05T14:59:01.328Z,4.40
2018-11-05T15:02:04.522Z,5.30
2018-11-05T15:03:35.695Z,5.50
2018-11-05T15:05:07.525Z,5.10
2018-11-05T15:06:38.906Z,3.70
2018-11-05T15:08:10.756Z,2.90
2018-11-05T15:09:42.311Z,3.40
2018-11-05T15:11:14.218Z,3.30
2018-11-05T15:12:45.489Z,3.50
2018-11-05T15:14:17.535Z,3.30
2018-11-05T15:15:48.350Z,4.00
2018-11-05T15:17:20.017Z,3.50
2018-11-05T15:18:52.113Z,4.10
2018-11-05T15:20:23.566Z,4.10
2018-11-05T15:21:55.232Z,4.50
2018-11-05T15:23:26.354Z,5.00
2018-11-05T15:24:59.756Z,5.30
2018-11-05T15:26:31.215Z,5.40
2018-11-05T15:28:01.084Z,5.20
2018-11-05T15:29:33.162Z,5.50
2018-11-05T15:31:05.030Z,5.00
2018-11-05T15:32:38.893Z,4.40
2018-11-05T15:34:07.660Z,4.60
2018-11-05T15:35:41.100Z,4.20
2018-11-05T15:37:12.005Z,3.30
2018-11-05T15:38:42.809Z,3.40
2018-11-05T15:40:14.284Z,3.60
2018-11-05T15:41:45.377Z,3.20
2018-11-05T15:43:17.890Z,3.60
2018-11-05T15:46:20.818Z,3.90
2018-11-05T15:47:51.720Z,3.50
2018-11-05T15:49:24.016Z,3.00
2018-11-05T15:50:55.920Z,3.40
2018-11-05T15:52:27.511Z,3.80
2018-11-05T15:53:58.183Z,3.70
2018-11-05T15:55:30.153Z,3.80
2018-11-05T15:57:01.581Z,3.60
2018-11-05T15:58:33.886Z,4.20
2018-11-05T16:00:05.046Z,4.30
2018-11-05T16:01:37.408Z,4.00
2018-11-05T16:03:08.271Z,4.70
2018-11-05T16:04:40.757Z,4.20
2018-11-05T16:06:13.393Z,5.10
2018-11-05T16:07:43.813Z,5.00
2018-11-05T16:09:17.253Z,6.00
2018-11-05T16:10:46.629Z,5.40
2018-11-05T16:12:17.658Z,6.30
2018-11-05T16:13:48.597Z,6.40
2018-11-05T16:15:20.076Z,6.30
2018-11-05T16:16:51.585Z,5.60
2018-11-05T16:19:54.915Z,7.50
2018-11-05T16:21:26.334Z,5.90
2018-11-05T16:22:57.965Z,6.00
2018-11-05T16:24:29.749Z,6.20
2018-11-05T16:26:01.022Z,5.60
2018-11-05T16:27:32.804Z,4.80
2018-11-05T16:29:04.177Z,5.00
2018-11-05T16:30:35.983Z,4.40
2018-11-05T16:32:07.430Z,4.60
2018-11-05T16:33:38.915Z,3.70
2018-11-05T16:36:42.075Z,4.50
2018-11-05T16:38:13.659Z,5.00
2018-11-05T16:39:45.656Z,5.60
2018-11-05T16:41:16.858Z,6.70
2018-11-05T16:42:48.490Z,7.40
2018-11-05T16:44:20.474Z,8.50
2018-11-05T16:45:51.603Z,9.60
2018-11-05T16:47:23.147Z,10.50
2018-11-05T16:48:54.701Z,10.00
2018-11-05T16:50:26.278Z,11.00
2018-11-05T16:51:57.959Z,11.30
2018-11-05T16:55:01.023Z,11.80
2018-11-05T16:56:32.612Z,12.30
2018-11-05T16:58:04.261Z,11.00
2018-11-05T16:59:35.948Z,12.30
2018-11-05T17:01:07.800Z,12.60
2018-11-05T17:02:39.068Z,12.20
2018-11-05T17:04:10.474Z,11.80
2018-11-05T17:05:42.049Z,10.40
2018-11-05T17:07:13.625Z,12.20
2018-11-05T17:08:45.202Z,11.50
2018-11-05T17:10:16.980Z,11.70
2018-11-05T17:11:48.858Z,10.80
2018-11-05T17:13:20.068Z,10.90
2018-11-05T17:16:23.078Z,10.00
2018-11-05T17:17:54.957Z,9.30
2018-11-05T17:19:26.329Z,9.40
2018-11-05T17:22:29.379Z,8.50
2018-11-05T17:24:00.956Z,9.10
2018-11-05T17:25:32.832Z,8.80
2018-11-05T17:27:04.137Z,8.20
2018-11-05T17:28:35.677Z,9.70
2018-11-05T17:30:07.813Z,9.90
2018-11-05T17:33:10.400Z,8.10
2018-11-05T17:34:41.975Z,8.50
2018-11-05T17:36:13.550Z,8.60
2018-11-05T17:39:17.001Z,7.50
2018-11-05T17:40:48.274Z,7.70
2018-11-05T17:42:19.847Z,7.40
2018-11-05T17:43:51.422Z,6.40
2018-11-05T17:45:22.995Z,6.30
2018-11-05T17:46:54.576Z,6.30
2018-11-05T17:48:26.148Z,6.10
2018-11-05T17:49:57.717Z,6.50
2018-11-05T17:51:29.292Z,5.80
2018-11-05T17:54:32.440Z,6.10
2018-11-05T17:56:04.012Z,5.10
2018-11-05T17:59:07.564Z,6.30
2018-11-05T18:00:39.036Z,4.90
2018-11-05T18:02:10.609Z,5.00
2018-11-05T18:03:42.139Z,5.30
2018-11-05T18:05:13.459Z,5.50
2018-11-05T18:06:45.553Z,6.30
2018-11-05T18:08:16.635Z,5.80
2018-11-05T18:09:48.374Z,4.40
2018-11-05T18:11:19.743Z,6.20
2018-11-05T18:12:51.318Z,6.00
2018-11-05T18:14:22.891Z,6.70
2018-11-05T18:15:54.769Z,7.20
2018-11-05T18:17:26.141Z,7.00
2018-11-05T18:18:57.823Z,6.50
2018-11-05T18:20:29.711Z,7.50
2018-11-05T18:22:00.756Z,7.00
2018-11-05T18:23:32.329Z,6.80
2018-11-05T18:25:03.902Z,6.80
2018-11-05T18:26:35.677Z,7.50
2018-11-05T18:28:07.047Z,7.80
2018-11-05T18:32:41.866Z,9.70
2018-11-05T18:34:13.843Z,10.10
2018-11-05T18:35:44.912Z,9.10
2018-11-05T18:37:16.491Z,9.50
2018-11-05T18:38:48.059Z,8.90
2018-11-05T18:40:19.627Z,11.30
2018-11-05T18:43:22.977Z,12.70
2018-11-05T18:44:54.345Z,14.00
2018-11-05T18:46:25.918Z,13.10
2018-11-05T18:49:29.109Z,14.30
2018-11-05T18:52:32.816Z,14.10
2018-11-05T18:55:35.352Z,13.30
2018-11-05T18:57:07.310Z,14.00
2018-11-05T18:58:38.504Z,10.10
2018-11-05T19:00:10.069Z,9.10
2018-11-05T19:01:41.657Z,10.30
2018-11-05T19:03:13.349Z,9.20
2018-11-05T19:04:45.314Z,9.60
2018-11-05T19:06:16.359Z,10.00
2018-11-05T19:09:19.505Z,12.00
2018-11-05T19:10:51.182Z,11.30
2018-11-05T19:12:22.644Z,11.00
2018-11-05T19:13:54.382Z,12.00
2018-11-05T19:18:28.934Z,12.00
2018-11-05T19:20:01.035Z,12.80
2018-11-05T19:21:32.094Z,13.90
2018-11-05T19:23:03.776Z,16.20
2018-11-05T19:24:35.829Z,15.60
2018-11-05T19:26:06.794Z,15.60
2018-11-05T19:27:38.369Z,16.50
2018-11-05T19:29:09.944Z,17.80
2018-11-05T19:32:13.182Z,17.60
2018-11-05T19:35:16.233Z,19.10
2018-11-05T19:36:47.796Z,18.60
2018-11-05T19:38:19.368Z,18.70
2018-11-05T19:41:22.511Z,20.40
2018-11-05T19:42:54.205Z,21.30
2018-11-05T19:44:25.654Z,21.00
2018-11-05T19:45:57.226Z,20.00
2018-11-05T19:47:28.877Z,17.80
2018-11-05T19:50:32.042Z,17.40
2018-11-05T19:52:03.532Z,15.60
2018-11-05T19:53:35.193Z,15.80
2018-11-05T19:55:06.657Z,16.30
2018-11-05T19:56:38.290Z,16.60
2018-11-05T19:59:41.575Z,16.10
2018-11-05T20:01:13.450Z,15.00
2018-11-05T20:02:44.548Z,14.10
2018-11-05T20:04:16.123Z,12.80
2018-11-05T20:07:19.534Z,12.60
2018-11-05T20:10:22.473Z,13.00
2018-11-05T20:11:53.953Z,10.20
2018-11-05T20:14:57.417Z,11.50
2018-11-05T20:16:28.660Z,10.30
2018-11-05T20:18:00.279Z,10.60
2018-11-05T20:19:31.809Z,11.60
2018-11-05T20:21:03.375Z,11.20
2018-11-05T20:22:34.956Z,10.80
2018-11-05T20:24:06.517Z,11.30
2018-11-05T20:25:38.392Z,11.00
2018-11-05T20:27:09.964Z,11.50
2018-11-05T20:28:41.422Z,10.80
2018-11-05T20:31:44.612Z,11.90
2018-11-05T20:33:16.213Z,11.60
2018-11-05T20:34:47.521Z,12.40
2018-11-05T20:36:19.604Z,11.10
2018-11-05T20:37:50.659Z,12.50
2018-11-05T20:39:22.245Z,13.50
2018-11-05T20:40:53.849Z,13.50
2018-11-05T20:42:25.408Z,16.20
2018-11-05T20:43:56.943Z,16.30
2018-11-05T20:45:28.817Z,15.00
2018-11-05T20:47:00.888Z,16.60
2018-11-05T20:48:31.655Z,15.70
2018-11-05T20:50:03.316Z,16.10
2018-11-05T20:53:06.370Z,15.90
2018-11-05T20:54:37.941Z,15.00
2018-11-05T20:56:09.512Z,14.60
2018-11-05T20:57:41.085Z,15.40
2018-11-05T20:59:12.697Z,16.70
2018-11-05T21:00:44.301Z,16.50
2018-11-05T21:02:15.796Z,18.10
2018-11-05T21:03:47.367Z,17.30
2018-11-05T21:05:19.507Z,18.50
2018-11-05T21:06:51.644Z,18.50
2018-11-05T21:08:22.083Z,19.30
2018-11-05T21:09:53.651Z,19.20
2018-11-05T21:11:25.526Z,19.40
2018-11-05T21:14:28.448Z,18.60
2018-11-05T21:15:59.934Z,19.70
2018-11-05T21:17:31.505Z,19.90
2018-11-05T21:19:03.075Z,19.10
2018-11-05T21:20:34.766Z,20.00
2018-11-05T21:22:06.361Z,20.60
2018-11-05T21:23:37.899Z,19.60
2018-11-05T21:25:09.357Z,18.40
2018-11-05T21:26:40.976Z,18.70
2018-11-05T21:28:12.829Z,17.30
2018-11-05T21:29:44.069Z,17.80
2018-11-05T21:31:15.639Z,16.10
2018-11-05T21:32:47.257Z,16.40
2018-11-05T21:34:18.784Z,14.60
2018-11-05T21:35:50.357Z,15.30
2018-11-05T21:37:21.921Z,15.70
2018-11-05T21:38:53.491Z,15.60
2018-11-05T21:40:25.062Z,15.20
2018-11-05T21:41:56.731Z,12.90
2018-11-05T21:43:28.206Z,13.80
2018-11-05T21:44:59.777Z,13.10
2018-11-05T21:46:31.458Z,12.10
2018-11-05T21:48:03.022Z,12.50
2018-11-05T21:49:34.491Z,12.30
2018-11-05T21:51:06.056Z,13.70
2018-11-05T21:52:37.637Z,13.10
2018-11-05T21:54:09.243Z,11.70
2018-11-05T21:57:12.340Z,11.50
2018-11-05T21:58:43.910Z,12.50
2018-11-05T22:00:15.581Z,11.40
2018-11-05T22:01:47.051Z,10.30
2018-11-05T22:03:18.625Z,12.00
2018-11-05T22:04:50.720Z,12.70
2018-11-05T22:06:21.766Z,11.80
2018-11-05T22:07:53.333Z,13.40
2018-11-05T22:09:24.906Z,13.10
2018-11-05T22:10:56.779Z,12.80
2018-11-05T22:12:28.053Z,14.30
2018-11-05T22:13:59.618Z,12.80
2018-11-05T22:15:31.192Z,12.80
2018-11-05T22:17:02.761Z,13.70
2018-11-05T22:18:34.778Z,14.30
2018-11-05T22:20:05.912Z,15.40
2018-11-05T22:21:37.467Z,16.30
2018-11-05T22:23:09.039Z,15.60
2018-11-05T22:24:40.610Z,14.50
2018-11-05T22:26:12.179Z,14.20
2018-11-05T22:27:44.279Z,13.20
2018-11-05T22:29:15.323Z,13.50
2018-11-05T22:30:46.897Z,14.30
2018-11-05T22:32:18.467Z,12.20
2018-11-05T22:33:50.033Z,11.80
2018-11-05T22:35:21.607Z,10.40
2018-11-05T22:38:24.849Z,9.50
2018-11-05T22:39:56.314Z,7.00
2018-11-05T22:41:27.885Z,7.30
2018-11-05T22:42:59.505Z,5.60
2018-11-05T22:44:31.026Z,4.00
2018-11-05T22:46:02.594Z,4.20
2018-11-05T22:47:34.234Z,3.00
2018-11-05T22:49:05.736Z,2.50
2018-11-05T22:50:37.320Z,2.40
2018-11-05T22:52:08.876Z,2.50
2018-11-05T22:55:12.020Z,3.00
2018-11-05T22:56:43.691Z,3.10
2018-11-05T22:58:15.164Z,3.60
2018-11-05T22:59:46.729Z,4.30
2018-11-05T23:01:18.299Z,5.20
2018-11-05T23:02:49.871Z,4.90
2018-11-05T23:04:21.440Z,6.90
2018-11-05T23:05:53.014Z,9.60
2018-11-05T23:07:24.581Z,9.30
2018-11-05T23:08:56.152Z,8.70
2018-11-05T23:10:27.722Z,8.60
2018-11-05T23:11:59.297Z,8.30
2018-11-05T23:13:30.863Z,5.10
2018-11-05T23:15:02.534Z,3.80
2018-11-05T23:16:34.005Z,3.90
2018-11-05T23:18:05.661Z,3.60
2018-11-05T23:19:37.146Z,3.40
2018-11-05T23:21:08.717Z,3.40
2018-11-05T23:22:40.287Z,3.70
2018-11-05T23:24:11.856Z,4.80
2018-11-05T23:25:43.427Z,5.20
2018-11-05T23:27:15.001Z,6.00
2018-11-05T23:28:46.569Z,6.70
2018-11-05T23:30:18.140Z,6.90
2018-11-05T23:31:49.710Z,6.90
2018-11-05T23:33:21.421Z,8.40
2018-11-05T23:34:52.864Z,8.30
2018-11-05T23:36:24.423Z,9.40
2018-11-05T23:37:55.992Z,9.00
2018-11-05T23:39:28.310Z,9.50
2018-11-05T23:40:59.216Z,9.40
2018-11-05T23:42:30.703Z,9.10
2018-11-05T23:44:02.272Z,10.20
2018-11-05T23:45:33.843Z,8.50
2018-11-05T23:47:05.699Z,6.40
2018-11-05T23:48:36.985Z,6.70
2018-11-05T23:50:08.585Z,5.70
2018-11-05T23:51:40.238Z,5.30
2018-11-05T23:53:11.696Z,4.90
2018-11-05T23:54:43.267Z,4.90
2018-11-05T23:56:14.837Z,4.60
2018-11-05T23:57:46.407Z,5.50
2018-11-05T23:59:17.978Z,7.40
